sensor_id;sensor_type;location;lat;lon;timestamp;P1;durP1;ratioP1;P2;durP2;ratioP2
20731;SDS011;10527;52.124;5.196;2023-04-01T00:01:45;16.35;;;6.15;;
20731;SDS011;10527;52.124;5.196;2023-04-01T00:04:12;18.55;;;6.80;;
20731;SDS011;10527;52.124;5.196;2023-04-01T00:06:39;15.93;;;6.07;;
20731;SDS011;10527;52.124;5.196;2023-04-01T00:09:06;11.93;;;5.85;;
20731;SDS011;10527;52.124;5.196;2023-04-01T00:11:32;13.63;;;5.80;;
20731;SDS011;10527;52.124;5.196;2023-04-01T00:13:59;16.43;;;5.53;;
20731;SDS011;10527;52.124;5.196;2023-04-01T00:16:26;12.40;;;5.63;;
20731;SDS011;10527;52.124;5.196;2023-04-01T00:18:53;14.40;;;5.67;;
20731;SDS011;10527;52.124;5.196;2023-04-01T00:21:20;10.45;;;5.65;;
20731;SDS011;10527;52.124;5.196;2023-04-01T00:23:48;16.27;;;7.28;;
20731;SDS011;10527;52.124;5.196;2023-04-01T00:26:17;14.03;;;6.40;;
20731;SDS011;10527;52.124;5.196;2023-04-01T00:28:47;14.90;;;7.10;;
20731;SDS011;10527;52.124;5.196;2023-04-01T00:31:14;16.30;;;7.50;;
20731;SDS011;10527;52.124;5.196;2023-04-01T00:33:41;15.05;;;7.20;;
20731;SDS011;10527;52.124;5.196;2023-04-01T00:36:12;16.40;;;7.70;;
20731;SDS011;10527;52.124;5.196;2023-04-01T00:38:45;18.57;;;8.10;;
20731;SDS011;10527;52.124;5.196;2023-04-01T00:41:17;13.85;;;7.07;;
20731;SDS011;10527;52.124;5.196;2023-04-01T00:43:48;10.90;;;6.55;;
20731;SDS011;10527;52.124;5.196;2023-04-01T00:46:17;16.08;;;7.43;;
20731;SDS011;10527;52.124;5.196;2023-04-01T00:48:51;11.98;;;6.85;;
20731;SDS011;10527;52.124;5.196;2023-04-01T00:51:25;12.23;;;6.90;;
20731;SDS011;10527;52.124;5.196;2023-04-01T00:53:56;13.80;;;6.95;;
20731;SDS011;10527;52.124;5.196;2023-04-01T00:56:30;14.43;;;7.30;;
20731;SDS011;10527;52.124;5.196;2023-04-01T00:59:06;15.10;;;7.28;;
20731;SDS011;10527;52.124;5.196;2023-04-01T01:01:40;11.13;;;6.83;;
20731;SDS011;10527;52.124;5.196;2023-04-01T01:04:19;10.27;;;6.47;;
20731;SDS011;10527;52.124;5.196;2023-04-01T01:13:11;8.80;;;5.95;;
20731;SDS011;10527;52.124;5.196;2023-04-01T01:16:04;7.63;;;5.03;;
20731;SDS011;10527;52.124;5.196;2023-04-01T01:27:39;8.47;;;5.40;;
20731;SDS011;10527;52.124;5.196;2023-04-01T01:35:51;6.07;;;3.40;;
20731;SDS011;10527;52.124;5.196;2023-04-01T01:38:40;4.47;;;3.50;;
20731;SDS011;10527;52.124;5.196;2023-04-01T01:41:07;6.40;;;3.70;;
20731;SDS011;10527;52.124;5.196;2023-04-01T01:43:40;7.20;;;4.25;;
20731;SDS011;10527;52.124;5.196;2023-04-01T01:46:16;6.85;;;3.63;;
20731;SDS011;10527;52.124;5.196;2023-04-01T01:48:49;6.43;;;3.10;;
20731;SDS011;10527;52.124;5.196;2023-04-01T01:51:19;6.85;;;3.45;;
20731;SDS011;10527;52.124;5.196;2023-04-01T01:53:48;4.47;;;2.87;;
20731;SDS011;10527;52.124;5.196;2023-04-01T01:56:15;5.23;;;2.50;;
20731;SDS011;10527;52.124;5.196;2023-04-01T01:58:49;4.60;;;2.63;;
20731;SDS011;10527;52.124;5.196;2023-04-01T02:01:32;7.57;;;3.20;;
20731;SDS011;10527;52.124;5.196;2023-04-01T02:04:04;5.47;;;2.90;;
20731;SDS011;10527;52.124;5.196;2023-04-01T02:06:32;4.20;;;2.70;;
20731;SDS011;10527;52.124;5.196;2023-04-01T02:09:06;5.70;;;2.90;;
20731;SDS011;10527;52.124;5.196;2023-04-01T02:11:47;6.20;;;3.10;;
20731;SDS011;10527;52.124;5.196;2023-04-01T02:14:41;5.27;;;3.73;;
20731;SDS011;10527;52.124;5.196;2023-04-01T02:17:21;5.97;;;4.27;;
20731;SDS011;10527;52.124;5.196;2023-04-01T02:19:53;6.73;;;3.27;;
20731;SDS011;10527;52.124;5.196;2023-04-01T02:22:33;6.10;;;2.60;;
20731;SDS011;10527;52.124;5.196;2023-04-01T02:25:09;6.27;;;3.27;;
20731;SDS011;10527;52.124;5.196;2023-04-01T02:27:41;7.23;;;3.43;;
20731;SDS011;10527;52.124;5.196;2023-04-01T02:30:13;8.67;;;3.47;;
20731;SDS011;10527;52.124;5.196;2023-04-01T02:32:42;6.00;;;2.80;;
20731;SDS011;10527;52.124;5.196;2023-04-01T02:35:13;5.90;;;2.93;;
20731;SDS011;10527;52.124;5.196;2023-04-01T02:37:43;6.17;;;3.10;;
20731;SDS011;10527;52.124;5.196;2023-04-01T02:40:14;8.23;;;3.80;;
20731;SDS011;10527;52.124;5.196;2023-04-01T02:42:43;5.57;;;2.70;;
20731;SDS011;10527;52.124;5.196;2023-04-01T02:45:11;5.70;;;2.67;;
20731;SDS011;10527;52.124;5.196;2023-04-01T02:47:39;5.83;;;2.90;;
20731;SDS011;10527;52.124;5.196;2023-04-01T02:50:06;5.73;;;2.77;;
20731;SDS011;10527;52.124;5.196;2023-04-01T02:52:34;5.40;;;3.03;;
20731;SDS011;10527;52.124;5.196;2023-04-01T02:55:02;4.43;;;2.80;;
20731;SDS011;10527;52.124;5.196;2023-04-01T02:57:30;5.30;;;2.97;;
20731;SDS011;10527;52.124;5.196;2023-04-01T02:59:56;6.00;;;3.20;;
20731;SDS011;10527;52.124;5.196;2023-04-01T03:02:23;3.73;;;2.97;;
20731;SDS011;10527;52.124;5.196;2023-04-01T03:04:50;3.83;;;2.80;;
20731;SDS011;10527;52.124;5.196;2023-04-01T03:07:17;5.30;;;3.93;;
20731;SDS011;10527;52.124;5.196;2023-04-01T03:09:44;4.90;;;3.77;;
20731;SDS011;10527;52.124;5.196;2023-04-01T03:12:11;7.23;;;4.30;;
20731;SDS011;10527;52.124;5.196;2023-04-01T03:14:38;6.53;;;4.20;;
20731;SDS011;10527;52.124;5.196;2023-04-01T03:17:04;6.03;;;4.30;;
20731;SDS011;10527;52.124;5.196;2023-04-01T03:19:31;5.80;;;4.33;;
20731;SDS011;10527;52.124;5.196;2023-04-01T03:21:58;9.00;;;4.63;;
20731;SDS011;10527;52.124;5.196;2023-04-01T03:24:25;5.57;;;4.03;;
20731;SDS011;10527;52.124;5.196;2023-04-01T03:26:52;6.80;;;4.73;;
20731;SDS011;10527;52.124;5.196;2023-04-01T03:29:18;6.23;;;4.80;;
20731;SDS011;10527;52.124;5.196;2023-04-01T03:31:45;10.93;;;4.97;;
20731;SDS011;10527;52.124;5.196;2023-04-01T03:34:12;7.00;;;5.20;;
20731;SDS011;10527;52.124;5.196;2023-04-01T03:36:39;8.13;;;4.50;;
20731;SDS011;10527;52.124;5.196;2023-04-01T03:39:06;6.80;;;4.43;;
20731;SDS011;10527;52.124;5.196;2023-04-01T03:41:35;6.37;;;4.40;;
20731;SDS011;10527;52.124;5.196;2023-04-01T03:44:04;5.57;;;4.20;;
20731;SDS011;10527;52.124;5.196;2023-04-01T03:46:31;5.80;;;4.13;;
20731;SDS011;10527;52.124;5.196;2023-04-01T03:48:58;5.33;;;4.00;;
20731;SDS011;10527;52.124;5.196;2023-04-01T03:51:25;7.20;;;4.50;;
20731;SDS011;10527;52.124;5.196;2023-04-01T03:53:52;5.33;;;4.33;;
20731;SDS011;10527;52.124;5.196;2023-04-01T03:58:53;7.10;;;4.53;;
20731;SDS011;10527;52.124;5.196;2023-04-01T04:01:20;8.57;;;5.67;;
20731;SDS011;10527;52.124;5.196;2023-04-01T04:03:48;8.50;;;5.27;;
20731;SDS011;10527;52.124;5.196;2023-04-01T04:06:17;6.07;;;5.03;;
20731;SDS011;10527;52.124;5.196;2023-04-01T04:08:49;8.10;;;6.10;;
20731;SDS011;10527;52.124;5.196;2023-04-01T04:11:18;7.35;;;5.35;;
20731;SDS011;10527;52.124;5.196;2023-04-01T04:13:49;7.33;;;5.63;;
20731;SDS011;10527;52.124;5.196;2023-04-01T04:16:20;8.23;;;6.03;;
20731;SDS011;10527;52.124;5.196;2023-04-01T04:18:47;8.02;;;5.03;;
20731;SDS011;10527;52.124;5.196;2023-04-01T04:21:14;7.33;;;5.43;;
20731;SDS011;10527;52.124;5.196;2023-04-01T04:23:43;7.00;;;5.07;;
20731;SDS011;10527;52.124;5.196;2023-04-01T04:26:11;6.70;;;4.60;;
20731;SDS011;10527;52.124;5.196;2023-04-01T04:28:40;7.10;;;4.73;;
20731;SDS011;10527;52.124;5.196;2023-04-01T04:31:11;5.30;;;3.90;;
20731;SDS011;10527;52.124;5.196;2023-04-01T04:33:45;4.77;;;3.33;;
20731;SDS011;10527;52.124;5.196;2023-04-01T04:36:14;4.90;;;3.20;;
20731;SDS011;10527;52.124;5.196;2023-04-01T04:38:41;6.57;;;3.93;;
20731;SDS011;10527;52.124;5.196;2023-04-01T04:41:08;5.40;;;3.77;;
20731;SDS011;10527;52.124;5.196;2023-04-01T04:43:38;6.60;;;4.43;;
20731;SDS011;10527;52.124;5.196;2023-04-01T04:46:10;5.60;;;3.90;;
20731;SDS011;10527;52.124;5.196;2023-04-01T04:48:37;5.50;;;4.23;;
20731;SDS011;10527;52.124;5.196;2023-04-01T04:51:04;5.60;;;4.20;;
20731;SDS011;10527;52.124;5.196;2023-04-01T04:53:31;6.13;;;4.67;;
20731;SDS011;10527;52.124;5.196;2023-04-01T04:55:57;7.37;;;4.63;;
20731;SDS011;10527;52.124;5.196;2023-04-01T04:58:24;5.83;;;4.10;;
20731;SDS011;10527;52.124;5.196;2023-04-01T05:00:51;8.17;;;4.40;;
20731;SDS011;10527;52.124;5.196;2023-04-01T05:03:18;4.70;;;3.97;;
20731;SDS011;10527;52.124;5.196;2023-04-01T05:05:49;6.27;;;4.80;;
20731;SDS011;10527;52.124;5.196;2023-04-01T05:08:19;6.57;;;4.83;;
20731;SDS011;10527;52.124;5.196;2023-04-01T05:10:46;6.20;;;4.63;;
20731;SDS011;10527;52.124;5.196;2023-04-01T05:13:13;6.17;;;4.80;;
20731;SDS011;10527;52.124;5.196;2023-04-01T05:15:40;7.57;;;5.10;;
20731;SDS011;10527;52.124;5.196;2023-04-01T05:18:22;6.97;;;5.10;;
20731;SDS011;10527;52.124;5.196;2023-04-01T05:20:49;6.20;;;4.57;;
20731;SDS011;10527;52.124;5.196;2023-04-01T05:23:19;7.03;;;5.73;;
20731;SDS011;10527;52.124;5.196;2023-04-01T05:25:48;8.80;;;5.33;;
20731;SDS011;10527;52.124;5.196;2023-04-01T05:28:19;7.23;;;5.40;;
20731;SDS011;10527;52.124;5.196;2023-04-01T05:30:46;6.60;;;5.50;;
20731;SDS011;10527;52.124;5.196;2023-04-01T05:33:15;8.17;;;5.03;;
20731;SDS011;10527;52.124;5.196;2023-04-01T05:35:42;6.90;;;5.68;;
20731;SDS011;10527;52.124;5.196;2023-04-01T05:38:08;6.10;;;4.70;;
20731;SDS011;10527;52.124;5.196;2023-04-01T05:40:35;5.75;;;4.78;;
20731;SDS011;10527;52.124;5.196;2023-04-01T05:43:02;8.00;;;5.37;;
20731;SDS011;10527;52.124;5.196;2023-04-01T05:45:29;6.20;;;5.13;;
20731;SDS011;10527;52.124;5.196;2023-04-01T05:47:56;6.70;;;5.43;;
20731;SDS011;10527;52.124;5.196;2023-04-01T05:50:23;7.13;;;6.03;;
20731;SDS011;10527;52.124;5.196;2023-04-01T05:52:50;7.70;;;6.25;;
20731;SDS011;10527;52.124;5.196;2023-04-01T05:55:19;7.28;;;5.22;;
20731;SDS011;10527;52.124;5.196;2023-04-01T05:57:46;7.90;;;6.55;;
20731;SDS011;10527;52.124;5.196;2023-04-01T06:00:15;8.68;;;6.35;;
20731;SDS011;10527;52.124;5.196;2023-04-01T06:02:43;7.35;;;5.97;;
20731;SDS011;10527;52.124;5.196;2023-04-01T06:05:18;7.90;;;6.47;;
20731;SDS011;10527;52.124;5.196;2023-04-01T06:07:55;7.55;;;6.53;;
20731;SDS011;10527;52.124;5.196;2023-04-01T06:10:36;7.47;;;6.23;;
20731;SDS011;10527;52.124;5.196;2023-04-01T06:19:31;8.38;;;6.00;;
20731;SDS011;10527;52.124;5.196;2023-04-01T06:22:29;6.80;;;5.80;;
20731;SDS011;10527;52.124;5.196;2023-04-01T06:25:17;10.03;;;6.60;;
20731;SDS011;10527;52.124;5.196;2023-04-01T06:31:03;8.03;;;7.13;;
20731;SDS011;10527;52.124;5.196;2023-04-01T06:38:35;7.95;;;6.18;;
20731;SDS011;10527;52.124;5.196;2023-04-01T06:41:21;7.47;;;5.47;;
20731;SDS011;10527;52.124;5.196;2023-04-01T06:58:19;7.00;;;4.33;;
20731;SDS011;10527;52.124;5.196;2023-04-01T07:00:53;7.10;;;4.60;;
20731;SDS011;10527;52.124;5.196;2023-04-01T07:06:16;5.23;;;3.97;;
20731;SDS011;10527;52.124;5.196;2023-04-01T07:09:05;7.37;;;5.17;;
20731;SDS011;10527;52.124;5.196;2023-04-01T07:11:39;9.20;;;5.00;;
20731;SDS011;10527;52.124;5.196;2023-04-01T07:14:15;7.90;;;6.03;;
20731;SDS011;10527;52.124;5.196;2023-04-01T07:16:58;9.93;;;5.93;;
20731;SDS011;10527;52.124;5.196;2023-04-01T07:19:37;9.80;;;6.60;;
20731;SDS011;10527;52.124;5.196;2023-04-01T07:24:57;9.00;;;6.03;;
20731;SDS011;10527;52.124;5.196;2023-04-01T07:27:37;6.93;;;5.53;;
20731;SDS011;10527;52.124;5.196;2023-04-01T07:30:06;7.83;;;5.20;;
20731;SDS011;10527;52.124;5.196;2023-04-01T07:32:51;9.07;;;5.93;;
20731;SDS011;10527;52.124;5.196;2023-04-01T07:35:39;8.23;;;6.00;;
20731;SDS011;10527;52.124;5.196;2023-04-01T07:47:54;8.07;;;6.00;;
20731;SDS011;10527;52.124;5.196;2023-04-01T07:50:56;7.90;;;5.70;;
20731;SDS011;10527;52.124;5.196;2023-04-01T07:53:37;7.38;;;5.22;;
20731;SDS011;10527;52.124;5.196;2023-04-01T07:56:27;7.20;;;5.18;;
20731;SDS011;10527;52.124;5.196;2023-04-01T08:02:25;9.40;;;6.00;;
20731;SDS011;10527;52.124;5.196;2023-04-01T08:05:45;8.32;;;5.68;;
20731;SDS011;10527;52.124;5.196;2023-04-01T08:08:41;8.60;;;6.13;;
20731;SDS011;10527;52.124;5.196;2023-04-01T08:17:10;11.98;;;6.85;;
20731;SDS011;10527;52.124;5.196;2023-04-01T08:22:45;12.65;;;8.30;;
20731;SDS011;10527;52.124;5.196;2023-04-01T08:25:34;11.75;;;6.97;;
20731;SDS011;10527;52.124;5.196;2023-04-01T08:31:04;12.02;;;7.40;;
20731;SDS011;10527;52.124;5.196;2023-04-01T08:33:41;9.23;;;6.40;;
20731;SDS011;10527;52.124;5.196;2023-04-01T08:36:17;11.88;;;7.38;;
20731;SDS011;10527;52.124;5.196;2023-04-01T08:38:52;13.38;;;8.15;;
20731;SDS011;10527;52.124;5.196;2023-04-01T08:47:56;12.90;;;7.70;;
20731;SDS011;10527;52.124;5.196;2023-04-01T08:56:23;13.90;;;8.40;;
20731;SDS011;10527;52.124;5.196;2023-04-01T08:59:33;13.88;;;8.70;;
20731;SDS011;10527;52.124;5.196;2023-04-01T09:15:25;13.32;;;8.07;;
20731;SDS011;10527;52.124;5.196;2023-04-01T09:30:17;11.95;;;7.80;;
20731;SDS011;10527;52.124;5.196;2023-04-01T09:36:03;11.18;;;6.50;;
20731;SDS011;10527;52.124;5.196;2023-04-01T09:38:57;8.63;;;5.45;;
20731;SDS011;10527;52.124;5.196;2023-04-01T09:45:22;8.77;;;5.95;;
20731;SDS011;10527;52.124;5.196;2023-04-01T09:48:12;9.85;;;6.60;;
20731;SDS011;10527;52.124;5.196;2023-04-01T10:00:35;8.93;;;6.15;;
20731;SDS011;10527;52.124;5.196;2023-04-01T10:03:26;10.23;;;5.70;;
20731;SDS011;10527;52.124;5.196;2023-04-01T10:09:45;7.45;;;4.35;;
20731;SDS011;10527;52.124;5.196;2023-04-01T10:16:03;5.57;;;4.03;;
20731;SDS011;10527;52.124;5.196;2023-04-01T10:28:53;5.10;;;3.97;;
20731;SDS011;10527;52.124;5.196;2023-04-01T10:44:21;5.60;;;3.50;;
20731;SDS011;10527;52.124;5.196;2023-04-01T10:56:00;5.90;;;4.93;;
20731;SDS011;10527;52.124;5.196;2023-04-01T11:38:57;3.92;;;3.50;;
20731;SDS011;10527;52.124;5.196;2023-04-01T11:44:27;3.40;;;2.78;;
20731;SDS011;10527;52.124;5.196;2023-04-01T11:56:14;3.88;;;3.35;;
20731;SDS011;10527;52.124;5.196;2023-04-01T12:08:03;6.13;;;4.72;;
20731;SDS011;10527;52.124;5.196;2023-04-01T12:11:23;6.03;;;4.78;;
20731;SDS011;10527;52.124;5.196;2023-04-01T12:17:02;6.28;;;5.22;;
20731;SDS011;10527;52.124;5.196;2023-04-01T12:25:27;7.47;;;5.68;;
20731;SDS011;10527;52.124;5.196;2023-04-01T12:31:13;7.15;;;5.95;;
20731;SDS011;10527;52.124;5.196;2023-04-01T12:37:09;7.43;;;6.50;;
20731;SDS011;10527;52.124;5.196;2023-04-01T12:44:15;7.95;;;5.22;;
20731;SDS011;10527;52.124;5.196;2023-04-01T12:46:57;7.63;;;5.30;;
20731;SDS011;10527;52.124;5.196;2023-04-01T12:56:38;7.50;;;6.40;;
20731;SDS011;10527;52.124;5.196;2023-04-01T12:59:53;6.57;;;5.53;;
20731;SDS011;10527;52.124;5.196;2023-04-01T13:09:13;8.00;;;5.97;;
20731;SDS011;10527;52.124;5.196;2023-04-01T13:16:14;7.75;;;6.38;;
20731;SDS011;10527;52.124;5.196;2023-04-01T13:18:56;7.15;;;5.32;;
20731;SDS011;10527;52.124;5.196;2023-04-01T13:25:30;5.97;;;5.03;;
20731;SDS011;10527;52.124;5.196;2023-04-01T13:27:56;5.50;;;4.70;;
20731;SDS011;10527;52.124;5.196;2023-04-01T13:33:36;5.40;;;4.35;;
20731;SDS011;10527;52.124;5.196;2023-04-01T13:42:08;4.43;;;3.67;;
20731;SDS011;10527;52.124;5.196;2023-04-01T13:51:18;4.30;;;3.22;;
20731;SDS011;10527;52.124;5.196;2023-04-01T14:03:00;3.47;;;2.60;;
20731;SDS011;10527;52.124;5.196;2023-04-01T14:06:08;5.82;;;3.00;;
20731;SDS011;10527;52.124;5.196;2023-04-01T14:12:19;4.20;;;2.55;;
20731;SDS011;10527;52.124;5.196;2023-04-01T14:21:29;3.90;;;3.45;;
20731;SDS011;10527;52.124;5.196;2023-04-01T14:25:28;4.57;;;4.07;;
20731;SDS011;10527;52.124;5.196;2023-04-01T14:28:10;7.00;;;4.38;;
20731;SDS011;10527;52.124;5.196;2023-04-01T14:36:53;4.30;;;3.90;;
20731;SDS011;10527;52.124;5.196;2023-04-01T14:48:56;5.03;;;4.13;;
20731;SDS011;10527;52.124;5.196;2023-04-01T14:51:37;5.95;;;4.78;;
20731;SDS011;10527;52.124;5.196;2023-04-01T14:54:17;6.43;;;4.95;;
20731;SDS011;10527;52.124;5.196;2023-04-01T14:57:13;5.28;;;4.63;;
20731;SDS011;10527;52.124;5.196;2023-04-01T15:02:37;5.75;;;4.70;;
20731;SDS011;10527;52.124;5.196;2023-04-01T15:05:32;4.85;;;4.10;;
20731;SDS011;10527;52.124;5.196;2023-04-01T15:11:57;5.18;;;4.35;;
20731;SDS011;10527;52.124;5.196;2023-04-01T15:14:57;5.25;;;3.85;;
20731;SDS011;10527;52.124;5.196;2023-04-01T15:18:03;5.03;;;4.22;;
20731;SDS011;10527;52.124;5.196;2023-04-01T15:23:54;6.63;;;5.00;;
20731;SDS011;10527;52.124;5.196;2023-04-01T15:29:47;4.30;;;3.40;;
20731;SDS011;10527;52.124;5.196;2023-04-01T15:33:08;3.65;;;3.30;;
20731;SDS011;10527;52.124;5.196;2023-04-01T15:35:46;3.60;;;3.03;;
20731;SDS011;10527;52.124;5.196;2023-04-01T15:38:48;3.55;;;2.65;;
20731;SDS011;10527;52.124;5.196;2023-04-01T15:41:51;2.80;;;2.47;;
20731;SDS011;10527;52.124;5.196;2023-04-01T15:47:41;3.47;;;2.75;;
20731;SDS011;10527;52.124;5.196;2023-04-01T16:02:12;2.35;;;2.08;;
20731;SDS011;10527;52.124;5.196;2023-04-01T16:05:23;3.10;;;2.80;;
20731;SDS011;10527;52.124;5.196;2023-04-01T16:23:24;2.20;;;1.77;;
20731;SDS011;10527;52.124;5.196;2023-04-01T16:29:08;2.28;;;1.83;;
20731;SDS011;10527;52.124;5.196;2023-04-01T16:37:43;1.83;;;1.45;;
20731;SDS011;10527;52.124;5.196;2023-04-01T16:40:42;3.03;;;1.20;;
20731;SDS011;10527;52.124;5.196;2023-04-01T16:43:44;4.60;;;3.00;;
20731;SDS011;10527;52.124;5.196;2023-04-01T16:46:50;1.95;;;1.40;;
20731;SDS011;10527;52.124;5.196;2023-04-01T16:49:36;1.20;;;1.10;;
20731;SDS011;10527;52.124;5.196;2023-04-01T16:52:14;1.60;;;1.23;;
20731;SDS011;10527;52.124;5.196;2023-04-01T16:54:57;1.58;;;1.20;;
20731;SDS011;10527;52.124;5.196;2023-04-01T16:57:43;1.60;;;1.40;;
20731;SDS011;10527;52.124;5.196;2023-04-01T17:00:27;1.37;;;1.27;;
20731;SDS011;10527;52.124;5.196;2023-04-01T17:11:23;1.52;;;1.42;;
20731;SDS011;10527;52.124;5.196;2023-04-01T17:17:29;2.00;;;1.80;;
20731;SDS011;10527;52.124;5.196;2023-04-01T17:29:16;2.37;;;2.10;;
20731;SDS011;10527;52.124;5.196;2023-04-01T17:47:23;1.70;;;1.60;;
20731;SDS011;10527;52.124;5.196;2023-04-01T17:50:07;2.40;;;1.47;;
20731;SDS011;10527;52.124;5.196;2023-04-01T17:53:05;2.42;;;1.48;;
20731;SDS011;10527;52.124;5.196;2023-04-01T17:56:03;2.70;;;1.50;;
20731;SDS011;10527;52.124;5.196;2023-04-01T18:01:54;1.85;;;1.75;;
20731;SDS011;10527;52.124;5.196;2023-04-01T18:20:24;3.93;;;2.80;;
20731;SDS011;10527;52.124;5.196;2023-04-01T18:26:13;3.00;;;2.23;;
20731;SDS011;10527;52.124;5.196;2023-04-01T18:32:08;4.83;;;3.17;;
20731;SDS011;10527;52.124;5.196;2023-04-01T18:35:00;3.27;;;2.77;;
20731;SDS011;10527;52.124;5.196;2023-04-01T18:38:00;3.47;;;2.27;;
20731;SDS011;10527;52.124;5.196;2023-04-01T18:40:53;2.80;;;2.50;;
20731;SDS011;10527;52.124;5.196;2023-04-01T18:46:49;2.50;;;2.30;;
20731;SDS011;10527;52.124;5.196;2023-04-01T18:49:46;3.00;;;2.40;;
20731;SDS011;10527;52.124;5.196;2023-04-01T18:52:38;2.47;;;2.27;;
20731;SDS011;10527;52.124;5.196;2023-04-01T18:57:56;2.30;;;2.10;;
20731;SDS011;10527;52.124;5.196;2023-04-01T19:03:55;3.53;;;2.27;;
20731;SDS011;10527;52.124;5.196;2023-04-01T19:06:51;2.43;;;2.23;;
20731;SDS011;10527;52.124;5.196;2023-04-01T19:09:24;3.40;;;3.07;;
20731;SDS011;10527;52.124;5.196;2023-04-01T19:15:48;3.27;;;2.90;;
20731;SDS011;10527;52.124;5.196;2023-04-01T19:39:16;4.37;;;3.57;;
20731;SDS011;10527;52.124;5.196;2023-04-01T20:06:00;4.53;;;4.07;;
20731;SDS011;10527;52.124;5.196;2023-04-01T20:11:49;4.80;;;4.30;;
20731;SDS011;10527;52.124;5.196;2023-04-01T20:14:50;8.03;;;5.23;;
20731;SDS011;10527;52.124;5.196;2023-04-01T20:17:31;5.73;;;5.20;;
20731;SDS011;10527;52.124;5.196;2023-04-01T20:25:17;7.00;;;4.80;;
20731;SDS011;10527;52.124;5.196;2023-04-01T20:46:45;4.63;;;4.23;;
20731;SDS011;10527;52.124;5.196;2023-04-01T20:49:47;5.20;;;4.30;;
20731;SDS011;10527;52.124;5.196;2023-04-01T21:04:03;5.83;;;4.40;;
20731;SDS011;10527;52.124;5.196;2023-04-01T21:07:20;4.37;;;3.97;;
20731;SDS011;10527;52.124;5.196;2023-04-01T21:10:25;5.30;;;4.80;;
20731;SDS011;10527;52.124;5.196;2023-04-01T21:16:23;4.43;;;3.47;;
20731;SDS011;10527;52.124;5.196;2023-04-01T21:36:45;5.17;;;4.10;;
20731;SDS011;10527;52.124;5.196;2023-04-01T21:48:26;5.47;;;4.60;;
20731;SDS011;10527;52.124;5.196;2023-04-01T22:01:43;5.10;;;4.53;;
20731;SDS011;10527;52.124;5.196;2023-04-01T22:08:02;5.27;;;4.73;;
20731;SDS011;10527;52.124;5.196;2023-04-01T22:11:14;6.37;;;4.80;;
20731;SDS011;10527;52.124;5.196;2023-04-01T22:14:15;5.03;;;4.53;;
20731;SDS011;10527;52.124;5.196;2023-04-01T22:25:46;8.03;;;5.20;;
20731;SDS011;10527;52.124;5.196;2023-04-01T22:31:27;7.07;;;5.17;;
20731;SDS011;10527;52.124;5.196;2023-04-01T22:34:10;7.07;;;6.20;;
20731;SDS011;10527;52.124;5.196;2023-04-01T22:42:45;5.90;;;4.90;;
20731;SDS011;10527;52.124;5.196;2023-04-01T22:56:34;7.63;;;5.90;;
20731;SDS011;10527;52.124;5.196;2023-04-01T23:02:46;5.57;;;4.97;;
20731;SDS011;10527;52.124;5.196;2023-04-01T23:05:51;8.07;;;5.83;;
20731;SDS011;10527;52.124;5.196;2023-04-01T23:11:19;5.90;;;5.17;;
20731;SDS011;10527;52.124;5.196;2023-04-01T23:14:15;7.60;;;6.03;;
20731;SDS011;10527;52.124;5.196;2023-04-01T23:17:01;10.90;;;6.67;;
20731;SDS011;10527;52.124;5.196;2023-04-01T23:28:56;10.33;;;6.90;;
20731;SDS011;10527;52.124;5.196;2023-04-01T23:31:30;7.07;;;5.87;;
20731;SDS011;10527;52.124;5.196;2023-04-01T23:34:00;8.00;;;6.00;;
20731;SDS011;10527;52.124;5.196;2023-04-01T23:36:40;11.43;;;6.10;;
20731;SDS011;10527;52.124;5.196;2023-04-01T23:39:30;7.17;;;6.23;;
20731;SDS011;10527;52.124;5.196;2023-04-01T23:42:05;7.13;;;6.07;;
20731;SDS011;10527;52.124;5.196;2023-04-01T23:44:53;8.60;;;6.13;;
20731;SDS011;10527;52.124;5.196;2023-04-01T23:47:24;8.77;;;7.10;;
20731;SDS011;10527;52.124;5.196;2023-04-01T23:50:04;9.17;;;7.07;;
20731;SDS011;10527;52.124;5.196;2023-04-01T23:52:40;7.67;;;6.30;;
20731;SDS011;10527;52.124;5.196;2023-04-01T23:55:15;8.47;;;6.20;;
